This is the latest recevied weather packets stored in our database for station/object AA6HF. If no packets are shown the sender has not sent any weather packets the latest 1 day(s).
| Time | Temp. | Humidity | Pressure | Rain* | Wind** | Luminosity | Snow |
|---|---|---|---|---|---|---|---|
| 1778010625 | 25° C | 28% | 1010.1 hPa | 0 mm | 0 m/s | - | - |
| 1778010325 | 25° C | 29% | 1010.3 hPa | 0 mm | 0 m/s | - | - |
| 1778010025 | 24.44° C | 29% | 1010.2 hPa | 0 mm | 0 m/s | - | - |
| 1778009725 | 25° C | 27% | 1010.3 hPa | 0 mm | 0 m/s | - | - |
| 1778009425 | 25° C | 26% | 1010.4 hPa | 0 mm | 0 m/s | - | - |
| 1778009125 | 25° C | 29% | 1010.4 hPa | 0 mm | 0 m/s | - | - |
| 1778008825 | 25° C | 27% | 1010.4 hPa | 0 mm | 0 m/s | - | - |
| 1778008525 | 24.44° C | 28% | 1010.5 hPa | 0 mm | 0 m/s | - | - |
| 1778008226 | 23.33° C | 30% | 1010.6 hPa | 0 mm | 0 m/s | - | - |
| 1778007936 | 22.78° C | 32% | 1010.6 hPa | 0 mm | 0 m/s | - | - |
| 1778007625 | 22.22° C | 34% | 1010.6 hPa | 0 mm | 0 m/s | - | - |
| 1778007326 | 22.22° C | 35% | 1010.7 hPa | 0 mm | 0 m/s | - | - |
| 1778007026 | 22.22° C | 35% | 1010.6 hPa | 0 mm | 0 m/s | - | - |
| 1778006726 | 22.22° C | 34% | 1010.7 hPa | 0 mm | 0 m/s | - | - |
| 1778006426 | 22.78° C | 34% | 1010.7 hPa | 0 mm | 0 m/s | - | - |
| 1778006126 | 23.33° C | 33% | 1010.6 hPa | 0 mm | 0 m/s | - | - |
| 1778005826 | 23.89° C | 32% | 1010.8 hPa | 0 mm | 0 m/s | - | - |
| 1778005526 | 24.44° C | 32% | 1010.7 hPa | 0 mm | 0.45 m/s, 281° | - | - |
| 1778005226 | 24.44° C | 32% | 1010.7 hPa | 0 mm | 0.45 m/s, 9° | - | - |
| 1778004926 | 23.89° C | 32% | 1010.6 hPa | 0 mm | 0 m/s | - | - |
| 1778004626 | 25° C | 31% | 1010.7 hPa | 0 mm | 0 m/s | - | - |
| 1778004326 | 23.89° C | 33% | 1010.7 hPa | 0 mm | 0 m/s | - | - |
| 1778004026 | 23.89° C | 33% | 1010.8 hPa | 0 mm | 0 m/s | - | - |
| 1778003726 | 23.89° C | 33% | 1010.7 hPa | 0 mm | 0 m/s | - | - |
| 1778003426 | 23.89° C | 34% | 1010.7 hPa | 0 mm | 0 m/s | - | - |
* Rain latest hour (hover to see other rain measurements)
** Current wind speed in m/s (hover to see current wind gust speed)